createdAt,value
2023-05-09T00:01:13.264Z,102299.56
2023-05-09T00:03:42.414Z,102282.25
2023-05-09T00:06:11.503Z,102298.03
2023-05-09T00:08:39.556Z,102302.78
2023-05-09T00:11:07.592Z,102299.16
2023-05-09T00:13:35.807Z,102290.50
2023-05-09T00:16:05.876Z,102294.88
2023-05-09T00:18:36.647Z,102297.56
2023-05-09T00:21:05.119Z,102289.78
2023-05-09T00:23:33.209Z,102287.16
2023-05-09T00:26:01.502Z,102291.69
2023-05-09T00:28:29.592Z,102277.88
2023-05-09T00:30:58.198Z,102276.63
2023-05-09T00:33:27.014Z,102272.63
2023-05-09T00:35:56.685Z,102283.88
2023-05-09T00:38:25.399Z,102273.34
2023-05-09T00:40:53.425Z,102272.53
2023-05-09T00:43:22.369Z,102267.16
2023-05-09T00:45:51.132Z,102273.56
2023-05-09T00:48:20.426Z,102273.56
2023-05-09T00:50:52.820Z,102258.13
2023-05-09T00:53:22.465Z,102275.47
2023-05-09T00:55:50.446Z,102272.88
2023-05-09T00:58:19.377Z,102272.06
2023-05-09T01:00:47.995Z,102266.91
2023-05-09T01:03:16.272Z,102275.78
2023-05-09T01:05:53.523Z,102278.47
2023-05-09T01:08:35.915Z,102281.25
2023-05-09T01:11:11.421Z,102279.50
2023-05-09T01:13:45.606Z,102270.69
2023-05-09T01:16:20.833Z,102268.94
2023-05-09T01:18:57.310Z,102266.34
2023-05-09T01:21:29.283Z,102268.16
2023-05-09T01:24:21.708Z,102253.19
2023-05-09T01:27:07.244Z,102264.78
2023-05-09T01:29:44.091Z,102254.06
2023-05-09T01:32:17.402Z,102239.31
2023-05-09T01:34:46.659Z,102249.78
2023-05-09T01:37:16.742Z,102231.69
2023-05-09T01:39:49.195Z,102233.19
2023-05-09T01:42:19.912Z,102244.53
2023-05-09T01:44:50.802Z,102246.44
2023-05-09T01:47:20.878Z,102244.69
2023-05-09T01:49:49.460Z,102243.81
2023-05-09T01:52:20.129Z,102247.44
2023-05-09T01:54:49.653Z,102235.06
2023-05-09T01:57:21.264Z,102236.03
2023-05-09T01:59:51.937Z,102242.31
2023-05-09T02:02:20.480Z,102248.72
2023-05-09T02:04:50.194Z,102247.84
2023-05-09T02:07:19.039Z,102244.31
2023-05-09T02:09:47.935Z,102239.03
2023-05-09T02:12:15.965Z,102210.31
2023-05-09T02:14:43.975Z,102235.56
2023-05-09T02:17:17.052Z,102233.66
2023-05-09T02:19:45.356Z,102236.44
2023-05-09T02:22:14.021Z,102221.38
2023-05-09T02:24:43.603Z,102217.88
2023-05-09T02:27:13.828Z,102219.56
2023-05-09T02:29:46.958Z,102221.28
2023-05-09T02:32:20.173Z,102208.03
2023-05-09T02:34:50.085Z,102216.09
2023-05-09T02:37:19.811Z,102209.00
2023-05-09T02:39:48.608Z,102216.19
2023-05-09T02:42:25.258Z,102212.63
2023-05-09T02:44:53.672Z,102210.88
2023-05-09T02:47:23.471Z,102215.31
2023-05-09T02:49:51.596Z,102212.75
2023-05-09T02:52:19.608Z,102199.50
2023-05-09T02:54:48.675Z,102201.41
2023-05-09T02:57:16.792Z,102180.69
2023-05-09T02:59:44.846Z,102207.47
2023-05-09T03:02:13.020Z,102203.94
2023-05-09T03:04:42.385Z,102204.88
2023-05-09T03:07:10.889Z,102207.53
2023-05-09T03:09:41.211Z,102168.50
2023-05-09T03:12:09.701Z,102196.13
2023-05-09T03:14:37.915Z,102200.38
2023-05-09T03:17:05.952Z,102199.44
2023-05-09T03:19:36.675Z,102188.31
2023-05-09T03:22:06.427Z,102207.47
2023-05-09T03:24:38.243Z,102199.44
2023-05-09T03:27:06.309Z,102201.16
2023-05-09T03:29:34.554Z,102208.03
2023-05-09T03:32:02.526Z,102210.56
2023-05-09T03:34:30.565Z,102206.69
2023-05-09T03:36:59.462Z,102203.84
2023-05-09T03:39:30.885Z,102205.19
2023-05-09T03:41:58.923Z,102205.69
2023-05-09T03:44:27.175Z,102202.69
2023-05-09T03:46:55.190Z,102194.28
2023-05-09T03:49:23.753Z,102187.03
2023-05-09T03:51:54.564Z,102187.53
2023-05-09T03:54:22.517Z,102194.50
2023-05-09T03:56:53.404Z,102190.56
2023-05-09T03:59:21.350Z,102198.28
2023-05-09T04:01:49.472Z,102167.06
2023-05-09T04:04:18.750Z,102202.34
2023-05-09T04:06:46.848Z,102194.91
2023-05-09T04:09:17.395Z,102141.06
2023-05-09T04:11:47.751Z,102195.34
2023-05-09T04:14:19.377Z,102182.16
2023-05-09T04:16:47.484Z,102197.72
2023-05-09T04:19:15.690Z,102179.34
2023-05-09T04:21:43.659Z,102204.28
2023-05-09T04:24:11.786Z,102202.28
2023-05-09T04:26:43.797Z,102120.56
2023-05-09T04:29:15.268Z,102192.41
2023-05-09T04:31:50.335Z,102198.88
2023-05-09T04:34:19.748Z,102203.13
2023-05-09T04:36:47.825Z,102199.28
2023-05-09T04:39:16.075Z,102194.63
2023-05-09T04:41:53.302Z,102201.53
2023-05-09T04:44:21.880Z,102183.78
2023-05-09T04:46:51.677Z,102202.69
2023-05-09T04:49:19.711Z,102188.59
2023-05-09T04:51:47.812Z,102197.75
2023-05-09T04:54:16.735Z,102202.03
2023-05-09T04:56:44.941Z,102195.66
2023-05-09T04:59:13.074Z,102200.78
2023-05-09T05:01:41.348Z,102196.84
2023-05-09T05:04:11.191Z,102201.97
2023-05-09T05:06:39.218Z,102189.56
2023-05-09T05:09:07.312Z,102201.50
2023-05-09T05:11:35.335Z,102204.00
2023-05-09T05:14:04.965Z,102204.59
2023-05-09T05:16:33.058Z,102194.69
2023-05-09T05:19:01.402Z,102189.91
2023-05-09T05:21:32.818Z,102194.13
2023-05-09T05:24:01.460Z,102186.72
2023-05-09T05:26:29.384Z,102178.84
2023-05-09T05:28:57.833Z,102191.72
2023-05-09T05:31:26.727Z,102190.56
2023-05-09T05:33:54.781Z,102190.38
2023-05-09T05:36:23.350Z,102189.34
2023-05-09T05:38:52.804Z,102190.84
2023-05-09T05:41:20.929Z,102185.47
2023-05-09T05:43:49.908Z,102192.19
2023-05-09T05:46:18.386Z,102194.81
2023-05-09T05:48:46.618Z,102192.91
2023-05-09T05:51:14.593Z,102187.34
2023-05-09T05:53:43.316Z,102190.69
2023-05-09T05:56:12.682Z,102186.94
2023-05-09T05:58:40.810Z,102182.22
2023-05-09T06:01:09.030Z,102178.47
2023-05-09T06:03:37.166Z,102171.06
2023-05-09T06:06:07.794Z,102176.34
2023-05-09T06:08:35.889Z,102171.75
2023-05-09T06:11:05.842Z,102171.53
2023-05-09T06:13:35.381Z,102172.31
2023-05-09T06:16:18.498Z,102171.13
2023-05-09T06:18:50.342Z,102159.41
2023-05-09T06:21:18.415Z,102166.31
2023-05-09T06:24:02.081Z,102160.84
2023-05-09T06:26:34.549Z,102156.03
2023-05-09T06:29:03.946Z,102162.03
2023-05-09T06:31:32.085Z,102156.59
2023-05-09T06:34:00.068Z,102156.47
2023-05-09T06:36:28.065Z,102160.41
2023-05-09T06:38:56.099Z,102155.31
2023-05-09T06:41:24.032Z,102159.72
2023-05-09T06:43:51.994Z,102165.03
2023-05-09T06:46:21.629Z,102153.19
2023-05-09T06:48:49.676Z,102130.81
2023-05-09T06:51:17.666Z,102164.69
2023-05-09T06:53:45.677Z,102153.06
2023-05-09T06:56:14.139Z,102151.03
2023-05-09T06:58:42.108Z,102146.53
2023-05-09T07:01:10.224Z,102150.84
2023-05-09T07:03:39.550Z,102145.44
2023-05-09T07:06:07.812Z,102151.69
2023-05-09T07:08:35.895Z,102150.59
2023-05-09T07:11:03.896Z,102154.16
2023-05-09T07:13:31.944Z,102145.06
2023-05-09T07:16:00.160Z,102141.41
2023-05-09T07:18:28.255Z,102144.97
2023-05-09T07:20:57.650Z,102149.28
2023-05-09T07:23:27.071Z,102141.97
2023-05-09T07:25:58.961Z,102140.13
2023-05-09T07:28:27.155Z,102125.78
2023-05-09T07:30:56.802Z,102103.19
2023-05-09T07:33:24.810Z,102124.84
2023-05-09T07:35:53.333Z,102130.22
2023-05-09T07:38:22.713Z,102121.16
2023-05-09T07:40:50.686Z,102125.69
2023-05-09T07:43:18.671Z,102123.84
2023-05-09T07:45:47.128Z,102120.22
2023-05-09T07:48:15.295Z,102114.16
2023-05-09T07:50:43.238Z,102120.97
2023-05-09T07:53:11.287Z,102119.13
2023-05-09T07:55:40.609Z,102113.63
2023-05-09T07:58:08.570Z,102115.44
2023-05-09T08:00:36.562Z,102111.25
2023-05-09T08:03:04.850Z,102119.88
2023-05-09T08:05:33.089Z,102101.97
2023-05-09T08:08:03.659Z,102108.25
2023-05-09T08:10:33.644Z,102109.22
2023-05-09T08:13:06.111Z,102108.25
2023-05-09T08:15:34.201Z,102099.41
2023-05-09T08:18:02.300Z,102100.28
2023-05-09T08:20:31.497Z,102095.84
2023-05-09T08:22:59.938Z,102094.97
2023-05-09T08:25:28.017Z,102090.56
2023-05-09T08:27:56.159Z,102082.91
2023-05-09T08:30:25.565Z,102088.84
2023-05-09T08:32:53.571Z,102082.56
2023-05-09T08:35:21.653Z,102080.88
2023-05-09T08:37:49.697Z,102073.88
2023-05-09T08:40:18.164Z,102077.50
2023-05-09T08:42:46.902Z,102072.66
2023-05-09T08:45:16.035Z,102056.34
2023-05-09T08:47:46.537Z,102071.81
2023-05-09T08:50:17.416Z,102066.53
2023-05-09T08:52:46.000Z,102068.16
2023-05-09T08:55:15.320Z,102070.97
2023-05-09T08:57:43.306Z,102062.88
2023-05-09T09:00:14.185Z,102057.50
2023-05-09T09:02:43.194Z,102029.06
2023-05-09T09:05:24.319Z,102060.19
2023-05-09T09:08:01.161Z,102067.41
2023-05-09T09:10:33.874Z,102060.06
2023-05-09T09:13:04.763Z,102018.63
2023-05-09T09:15:37.178Z,102055.63
2023-05-09T09:18:09.906Z,102044.03
2023-05-09T09:20:47.235Z,102044.22
2023-05-09T09:23:19.978Z,102040.56
2023-05-09T09:25:48.297Z,102024.56
2023-05-09T09:28:16.549Z,102009.69
2023-05-09T09:30:45.363Z,102026.53
2023-05-09T09:33:20.415Z,102036.44
2023-05-09T09:35:51.578Z,102038.19
2023-05-09T09:38:20.162Z,101988.56
2023-05-09T09:40:54.915Z,102020.78
2023-05-09T09:43:28.905Z,102017.69
2023-05-09T09:45:58.284Z,102012.38
2023-05-09T09:48:26.735Z,102033.09
2023-05-09T09:50:57.958Z,101973.25
2023-05-09T09:53:30.251Z,102021.44
2023-05-09T09:55:58.534Z,102026.97
2023-05-09T09:58:26.503Z,102018.97
2023-05-09T10:01:07.773Z,102019.81
2023-05-09T10:03:40.628Z,102016.38
2023-05-09T10:06:13.647Z,102012.72
2023-05-09T10:08:42.197Z,102017.34
2023-05-09T10:11:10.902Z,101997.00
2023-05-09T10:13:39.431Z,101999.44
2023-05-09T10:16:10.003Z,102000.44
2023-05-09T10:18:40.726Z,102003.13
2023-05-09T10:21:13.028Z,101990.53
2023-05-09T10:23:46.816Z,101989.66
2023-05-09T10:26:19.072Z,101988.03
2023-05-09T10:28:49.138Z,101990.75
2023-05-09T10:33:49.357Z,101988.03
2023-05-09T10:36:20.568Z,101989.88
2023-05-09T10:38:51.069Z,101988.13
2023-05-09T10:41:19.796Z,101989.00
2023-05-09T10:43:47.885Z,101994.50
2023-05-09T10:46:16.799Z,101968.19
2023-05-09T10:48:46.003Z,101979.31
2023-05-09T10:51:14.352Z,101981.03
2023-05-09T10:53:44.597Z,101984.69
2023-05-09T10:56:26.494Z,101977.47
2023-05-09T10:58:55.596Z,101974.03
2023-05-09T11:01:32.877Z,101941.59
2023-05-09T11:04:02.219Z,101968.88
2023-05-09T11:06:57.876Z,101965.31
2023-05-09T11:09:28.580Z,101974.25
2023-05-09T11:11:59.591Z,101974.13
2023-05-09T11:14:39.259Z,101971.69
2023-05-09T11:17:08.414Z,101944.81
2023-05-09T11:19:55.150Z,101977.16
2023-05-09T11:22:26.257Z,101938.34
2023-05-09T11:25:01.649Z,101972.84
2023-05-09T11:27:39.126Z,101965.72
2023-05-09T11:30:08.882Z,101968.66
2023-05-09T11:32:44.475Z,101957.09
2023-05-09T11:35:14.891Z,101963.34
2023-05-09T11:37:48.318Z,101962.28
2023-05-09T11:40:18.414Z,101953.44
2023-05-09T11:42:49.982Z,101954.84
2023-05-09T11:45:19.138Z,101964.22
2023-05-09T11:47:47.959Z,101957.88
2023-05-09T11:50:17.734Z,101951.06
2023-05-09T11:52:46.087Z,101957.97
2023-05-09T11:55:15.507Z,101956.88
2023-05-09T11:57:45.171Z,101961.41
2023-05-09T12:00:17.085Z,101952.56
2023-05-09T12:02:46.100Z,101959.59
2023-05-09T12:05:16.326Z,101952.56
2023-05-09T12:07:44.760Z,101928.69
2023-05-09T12:10:15.607Z,101907.34
2023-05-09T12:12:45.446Z,101942.88
2023-05-09T12:15:15.826Z,101943.53
2023-05-09T12:17:45.401Z,101937.41
2023-05-09T12:20:14.432Z,101940.94
2023-05-09T12:22:44.287Z,101941.81
2023-05-09T12:25:12.881Z,101934.72
2023-05-09T12:27:42.007Z,101940.94
2023-05-09T12:30:12.069Z,101941.19
2023-05-09T12:32:42.836Z,101931.16
2023-05-09T12:35:11.612Z,101910.78
2023-05-09T12:37:39.724Z,101940.19
2023-05-09T12:40:12.453Z,101919.41
2023-05-09T12:42:44.357Z,101935.00
2023-05-09T12:45:12.993Z,101926.94
2023-05-09T12:47:42.851Z,101926.19
2023-05-09T12:50:13.228Z,101918.22
2023-05-09T12:52:58.574Z,101903.56
2023-05-09T12:55:30.435Z,101915.63
2023-05-09T12:57:59.966Z,101919.19
2023-05-09T13:00:28.130Z,101916.50
2023-05-09T13:02:57.656Z,101909.38
2023-05-09T13:05:25.877Z,101901.09
2023-05-09T13:07:58.181Z,101905.84
2023-05-09T13:10:28.818Z,101908.63
2023-05-09T13:12:57.357Z,101898.72
2023-05-09T13:15:26.821Z,101896.16
2023-05-09T13:17:55.489Z,101895.28
2023-05-09T13:20:25.126Z,101899.69
2023-05-09T13:22:53.201Z,101889.78
2023-05-09T13:25:21.461Z,101882.72
2023-05-09T13:27:49.546Z,101893.47
2023-05-09T13:30:18.237Z,101854.06
2023-05-09T13:32:47.462Z,101870.19
2023-05-09T13:35:16.517Z,101876.13
2023-05-09T13:37:46.598Z,101876.88
2023-05-09T13:40:15.836Z,101866.88
2023-05-09T13:42:43.996Z,101862.13
2023-05-09T13:45:12.756Z,101871.63
2023-05-09T13:47:41.014Z,101867.09
2023-05-09T13:50:09.504Z,101872.06
2023-05-09T13:52:37.466Z,101872.81
2023-05-09T13:55:07.761Z,101868.16
2023-05-09T13:57:35.740Z,101854.50
2023-05-09T14:00:05.070Z,101847.91
2023-05-09T14:02:40.642Z,101861.38
2023-05-09T14:07:37.136Z,101856.63
2023-05-09T14:10:11.599Z,101860.06
2023-05-09T14:12:41.060Z,101834.03
2023-05-09T14:15:10.032Z,101853.94
2023-05-09T14:17:38.009Z,101842.97
2023-05-09T14:20:06.919Z,101850.91
2023-05-09T14:22:34.964Z,101844.91
2023-05-09T14:25:03.108Z,101842.09
2023-05-09T14:27:33.976Z,101843.56
2023-05-09T14:30:02.175Z,101841.75
2023-05-09T14:32:30.125Z,101831.31
2023-05-09T14:34:58.343Z,101832.06
2023-05-09T14:37:26.305Z,101830.38
2023-05-09T14:39:54.373Z,101808.81
2023-05-09T14:42:22.378Z,101829.50
2023-05-09T14:44:51.823Z,101840.13
2023-05-09T14:47:19.859Z,101836.69
2023-05-09T14:49:47.984Z,101838.53
2023-05-09T14:52:17.605Z,101842.09
2023-05-09T14:54:45.528Z,101840.25
2023-05-09T14:57:13.449Z,101847.47
2023-05-09T14:59:41.480Z,101842.97
2023-05-09T15:02:11.013Z,101811.28
2023-05-09T15:04:41.257Z,101832.06
2023-05-09T15:07:09.318Z,101831.09
2023-05-09T15:09:38.190Z,101831.97
2023-05-09T15:12:06.326Z,101830.06
2023-05-09T15:14:34.282Z,101830.06
2023-05-09T15:17:04.243Z,101811.25
2023-05-09T15:19:35.693Z,101833.78
2023-05-09T15:22:04.831Z,101810.66
2023-05-09T15:24:33.069Z,101771.34
2023-05-09T15:27:01.055Z,101810.84
2023-05-09T15:29:29.185Z,101804.81
2023-05-09T15:31:59.597Z,101802.13
2023-05-09T15:34:27.679Z,101798.81
2023-05-09T15:36:57.087Z,101792.56
2023-05-09T15:39:25.145Z,101786.31
2023-05-09T15:41:53.935Z,101782.13
2023-05-09T15:44:21.875Z,101777.84
2023-05-09T15:46:49.976Z,101782.22
2023-05-09T15:49:18.431Z,101782.34
2023-05-09T15:51:46.485Z,101773.63
2023-05-09T15:54:15.881Z,101769.97
2023-05-09T15:56:43.862Z,101770.81
2023-05-09T15:59:11.902Z,101778.13
2023-05-09T16:01:39.860Z,101778.13
2023-05-09T16:04:08.088Z,101765.66
2023-05-09T16:06:36.131Z,101760.28
2023-05-09T16:09:05.145Z,101765.75
2023-05-09T16:11:34.929Z,101766.75
2023-05-09T16:14:05.105Z,101758.97
2023-05-09T16:16:33.237Z,101767.94
2023-05-09T16:19:02.396Z,101754.47
2023-05-09T16:21:32.931Z,101729.63
2023-05-09T16:24:03.073Z,101746.72
2023-05-09T16:26:31.623Z,101744.91
2023-05-09T16:29:02.296Z,101752.00
2023-05-09T16:31:32.191Z,101753.06
2023-05-09T16:34:04.406Z,101748.69
2023-05-09T16:36:33.621Z,101732.00
2023-05-09T16:39:01.930Z,101747.16
2023-05-09T16:41:29.996Z,101746.41
2023-05-09T16:43:58.771Z,101738.34
2023-05-09T16:46:28.199Z,101734.25
2023-05-09T16:48:56.794Z,101726.19
2023-05-09T16:51:24.811Z,101737.94
2023-05-09T16:53:52.757Z,101720.16
2023-05-09T16:56:21.612Z,101724.56
2023-05-09T16:58:49.987Z,101733.38
2023-05-09T17:01:18.216Z,101718.44
2023-05-09T17:03:48.115Z,101699.41
2023-05-09T17:06:16.129Z,101717.44
2023-05-09T17:08:44.110Z,101720.06
2023-05-09T17:11:12.231Z,101719.31
2023-05-09T17:13:40.285Z,101706.81
2023-05-09T17:16:08.248Z,101709.50
2023-05-09T17:18:38.084Z,101712.31
2023-05-09T17:21:07.808Z,101710.59
2023-05-09T17:23:35.873Z,101715.31
2023-05-09T17:26:03.827Z,101711.53
2023-05-09T17:28:31.887Z,101710.72
2023-05-09T17:31:00.044Z,101667.41
2023-05-09T17:33:27.977Z,101699.16
2023-05-09T17:35:55.970Z,101701.03
2023-05-09T17:38:25.511Z,101698.53
2023-05-09T17:40:53.483Z,101705.63
2023-05-09T17:43:22.212Z,101700.50
2023-05-09T17:45:51.158Z,101695.13
2023-05-09T17:48:19.346Z,101704.19
2023-05-09T17:50:47.416Z,101703.44
2023-05-09T17:53:15.539Z,101705.41
2023-05-09T17:55:45.729Z,101700.03
2023-05-09T17:58:14.932Z,101699.38
2023-05-09T18:00:43.043Z,101702.06
2023-05-09T18:03:11.124Z,101706.59
2023-05-09T18:05:39.189Z,101704.75
2023-05-09T18:08:07.259Z,101706.47
2023-05-09T18:10:35.279Z,101701.97
2023-05-09T18:13:04.697Z,101700.88
2023-05-09T18:18:06.638Z,101707.34
2023-05-09T18:20:34.834Z,101707.34
2023-05-09T18:23:03.211Z,101679.16
2023-05-09T18:25:31.278Z,101704.88
2023-05-09T18:27:59.355Z,101712.72
2023-05-09T18:30:28.873Z,101720.66
2023-05-09T18:33:00.365Z,101724.56
2023-05-09T18:35:28.619Z,101723.47
2023-05-09T18:37:56.613Z,101718.97
2023-05-09T18:40:24.577Z,101717.25
2023-05-09T18:42:52.634Z,101731.34
2023-05-09T18:45:20.732Z,101723.47
2023-05-09T18:47:50.072Z,101723.28
2023-05-09T18:50:18.469Z,101720.59
2023-05-09T18:52:46.648Z,101721.75
2023-05-09T18:55:14.960Z,101727.03
2023-05-09T18:57:43.029Z,101719.06
2023-05-09T19:00:12.580Z,101706.47
2023-05-09T19:02:40.706Z,101718.97
2023-05-09T19:05:10.870Z,101695.72
2023-05-09T19:07:39.674Z,101696.69
2023-05-09T19:10:09.287Z,101719.06
2023-05-09T19:12:37.469Z,101723.47
2023-05-09T19:15:06.584Z,101714.53
2023-05-09T19:17:34.648Z,101716.38
2023-05-09T19:20:03.890Z,101719.94
2023-05-09T19:22:33.339Z,101708.63
2023-05-09T19:25:04.346Z,101717.34
2023-05-09T19:27:32.355Z,101721.75
2023-05-09T19:30:00.280Z,101720.13
2023-05-09T19:32:28.252Z,101722.81
2023-05-09T19:34:56.288Z,101721.97
2023-05-09T19:37:24.255Z,101716.69
2023-05-09T19:39:53.746Z,101723.91
2023-05-09T19:42:21.831Z,101715.97
2023-05-09T19:44:52.331Z,101715.09
2023-05-09T19:47:23.114Z,101691.97
2023-05-09T19:49:51.250Z,101703.88
2023-05-09T19:52:19.318Z,101710.78
2023-05-09T19:54:47.316Z,101712.72
2023-05-09T19:57:21.682Z,101709.91
2023-05-09T19:59:49.737Z,101716.38
2023-05-09T20:02:17.708Z,101706.91
2023-05-09T20:04:49.732Z,101703.25
2023-05-09T20:07:18.277Z,101704.97
2023-05-09T20:09:46.497Z,101715.63
2023-05-09T20:12:14.694Z,101717.44
2023-05-09T20:14:44.315Z,101706.69
2023-05-09T20:17:12.319Z,101701.66
2023-05-09T20:19:40.346Z,101705.06
2023-05-09T20:22:11.354Z,101704.97
2023-05-09T20:24:39.442Z,101701.53
2023-05-09T20:27:09.645Z,101713.03
2023-05-09T20:29:37.673Z,101699.16
2023-05-09T20:32:07.289Z,101696.06
2023-05-09T20:34:35.362Z,101704.22
2023-05-09T20:37:04.119Z,101700.56
2023-05-09T20:39:32.199Z,101711.41
2023-05-09T20:42:02.402Z,101706.03
2023-05-09T20:44:30.684Z,101705.19
2023-05-09T20:46:58.772Z,101710.56
2023-05-09T20:49:28.276Z,101709.59
2023-05-09T20:51:56.314Z,101708.84
2023-05-09T20:54:25.006Z,101690.03
2023-05-09T20:56:53.082Z,101711.53
2023-05-09T20:59:21.288Z,101707.09
2023-05-09T21:01:49.522Z,101693.56
2023-05-09T21:04:18.054Z,101698.41
2023-05-09T21:06:47.431Z,101707.09
2023-05-09T21:09:15.882Z,101705.41
2023-05-09T21:11:43.940Z,101716.16
2023-05-09T21:14:11.980Z,101712.69
2023-05-09T21:16:40.104Z,101712.59
2023-05-09T21:19:08.819Z,101710.00
2023-05-09T21:21:37.030Z,101703.34
2023-05-09T21:24:09.143Z,101691.09
2023-05-09T21:26:37.360Z,101671.41
2023-05-09T21:29:05.348Z,101710.25
2023-05-09T21:31:33.560Z,101705.69
2023-05-09T21:34:01.930Z,101712.94
2023-05-09T21:36:29.931Z,101704.97
2023-05-09T21:38:57.916Z,101714.63
2023-05-09T21:41:27.853Z,101701.53
2023-05-09T21:43:56.465Z,101703.25
2023-05-09T21:46:24.588Z,101710.53
2023-05-09T21:48:52.662Z,101707.78
2023-05-09T21:51:20.710Z,101712.28
2023-05-09T21:53:48.787Z,101706.03
2023-05-09T21:56:16.818Z,101704.34
2023-05-09T21:58:46.359Z,101705.28
2023-05-09T22:01:14.388Z,101703.56
2023-05-09T22:03:42.597Z,101702.72
2023-05-09T22:06:11.577Z,101660.19
2023-05-09T22:08:39.690Z,101701.06
2023-05-09T22:11:07.782Z,101700.53
2023-05-09T22:13:36.432Z,101704.75
2023-05-09T22:16:07.187Z,101677.94
2023-05-09T22:18:35.243Z,101704.09
2023-05-09T22:21:03.264Z,101706.03
2023-05-09T22:23:31.266Z,101663.16
2023-05-09T22:25:59.522Z,101717.63
2023-05-09T22:28:29.774Z,101715.91
2023-05-09T22:30:57.760Z,101718.59
2023-05-09T22:33:27.421Z,101712.25
2023-05-09T22:35:55.692Z,101721.28
2023-05-09T22:38:23.755Z,101726.66
2023-05-09T22:40:51.849Z,101718.59
2023-05-09T22:43:20.246Z,101724.09
2023-05-09T22:45:48.398Z,101712.59
2023-05-09T22:48:16.396Z,101723.44
2023-05-09T22:50:45.772Z,101717.50
2023-05-09T22:53:13.772Z,101726.44
2023-05-09T22:55:41.795Z,101726.63
2023-05-09T22:58:09.767Z,101726.84
2023-05-09T23:00:38.009Z,101732.41
2023-05-09T23:03:06.121Z,101732.53
2023-05-09T23:05:34.233Z,101734.47
2023-05-09T23:08:03.683Z,101734.53
2023-05-09T23:10:31.654Z,101740.88
2023-05-09T23:12:59.716Z,101717.94
2023-05-09T23:15:27.754Z,101746.53
2023-05-09T23:17:55.695Z,101748.47
2023-05-09T23:20:23.900Z,101735.16
2023-05-09T23:22:51.886Z,101735.25
2023-05-09T23:25:21.694Z,101726.94
2023-05-09T23:27:49.729Z,101748.13
2023-05-09T23:30:18.050Z,101747.38
2023-05-09T23:32:46.254Z,101743.94
2023-05-09T23:35:14.376Z,101746.69
2023-05-09T23:37:42.899Z,101745.84
2023-05-09T23:40:11.965Z,101747.00
2023-05-09T23:42:41.449Z,101754.00
2023-05-09T23:45:10.647Z,101748.00
2023-05-09T23:47:38.730Z,101757.00
2023-05-09T23:50:08.151Z,101750.75
2023-05-09T23:52:36.088Z,101755.47
2023-05-09T23:55:04.245Z,101758.06
2023-05-09T23:57:32.173Z,101755.69
